DAL2554 RJTT-KMIA
Flight info
| Callsign | DAL2554 |
|---|---|
| Flight time | N/A |
| Altitude | 33000 |
| Route | AKAGI Y88 DAIGO Y889 PUTER/N0495F340 A590 POWAL/N0500F330 R451 AAMYY/N0492F350 R451 ADK DCT 51N170W 50N160W 49N150W/N0487F370 46N140W 41N130W DCT REDWD DCT MYV DCT LLOAF/N0489F390 DCT PEEWE DCT PUMPS DCT MIRME DCT MDANO DCT POTEN DCT PEBBY J58 HRV Q105 REDFN DCT DOWRY FROGZ5 |
| Aircraft | A35K/H-SDE2E3GHIJ3J4J5LM1ORWXY/LB1D1 |
Departure
| Time | N/A |
|---|---|
| Airport | Tokyo Haneda International Airport (RJTT) |
Arrival
| Time | 2026-05-05 09:03 |
|---|---|
| Airport | Miami International Airport (KMIA) |
| Time | Latitude | Longitude | Altitude | Speed | Heading |
|---|---|---|---|---|---|
| 2026-05-05 08:30 | 27.21616 | -84.15061 | 37001 ft | 562 kts | 85° |
| 2026-05-05 08:31 | 27.21362 | -84.06272 | 37001 ft | 562 kts | 85° |
| 2026-05-05 08:31 | 27.21102 | -83.97486 | 36996 ft | 563 kts | 85° |
| 2026-05-05 08:32 | 27.20834 | -83.88684 | 37006 ft | 562 kts | 85° |
| 2026-05-05 08:32 | 27.20561 | -83.79893 | 36999 ft | 562 kts | 85° |
| 2026-05-05 08:33 | 27.20285 | -83.71166 | 36838 ft | 562 kts | 85° |
| 2026-05-05 08:33 | 27.20144 | -83.66769 | 36206 ft | 563 kts | 86° |
| 2026-05-05 08:33 | 27.20002 | -83.62349 | 35426 ft | 565 kts | 86° |
| 2026-05-05 08:33 | 27.19857 | -83.57921 | 34696 ft | 566 kts | 86° |
| 2026-05-05 08:34 | 27.19710 | -83.53514 | 34227 ft | 563 kts | 86° |
| 2026-05-05 08:34 | 27.19564 | -83.49169 | 34043 ft | 564 kts | 86° |
| 2026-05-05 08:34 | 27.19416 | -83.44744 | 33996 ft | 565 kts | 86° |
| 2026-05-05 08:35 | 27.19114 | -83.35908 | 34006 ft | 565 kts | 86° |
| 2026-05-05 08:35 | 27.18808 | -83.27109 | 34009 ft | 565 kts | 86° |
| 2026-05-05 08:36 | 27.18495 | -83.18280 | 34001 ft | 565 kts | 86° |
| 2026-05-05 08:36 | 27.18115 | -83.09434 | 34001 ft | 569 kts | 90° |
| 2026-05-05 08:37 | 27.16634 | -83.00636 | 34001 ft | 574 kts | 98° |
| 2026-05-05 08:37 | 27.14943 | -82.91933 | 34012 ft | 573 kts | 98° |
| 2026-05-05 08:38 | 27.12780 | -82.83289 | 34007 ft | 580 kts | 112° |
| 2026-05-05 08:38 | 27.08738 | -82.75436 | 34008 ft | 582 kts | 121° |
| 2026-05-05 08:39 | 27.04476 | -82.67756 | 34004 ft | 582 kts | 121° |
| 2026-05-05 08:39 | 27.00212 | -82.60032 | 34000 ft | 581 kts | 121° |
| 2026-05-05 08:40 | 26.95950 | -82.52306 | 33996 ft | 581 kts | 121° |
| 2026-05-05 08:40 | 26.91583 | -82.44762 | 33581 ft | 577 kts | 129° |
| 2026-05-05 08:40 | 26.88784 | -82.41546 | 32888 ft | 573 kts | 140° |
| 2026-05-05 08:41 | 26.85760 | -82.38629 | 32142 ft | 572 kts | 141° |
| 2026-05-05 08:41 | 26.82711 | -82.35748 | 31437 ft | 571 kts | 141° |
| 2026-05-05 08:41 | 26.79718 | -82.32910 | 30730 ft | 570 kts | 141° |
| 2026-05-05 08:41 | 26.76681 | -82.30017 | 29989 ft | 569 kts | 141° |
| 2026-05-05 08:42 | 26.73671 | -82.27143 | 29182 ft | 568 kts | 141° |
| 2026-05-05 08:42 | 26.70668 | -82.24272 | 28503 ft | 563 kts | 141° |
| 2026-05-05 08:42 | 26.67738 | -82.21472 | 27896 ft | 558 kts | 141° |
| 2026-05-05 08:42 | 26.64799 | -82.18664 | 27284 ft | 552 kts | 141° |
| 2026-05-05 08:43 | 26.61885 | -82.15881 | 26709 ft | 547 kts | 142° |
| 2026-05-05 08:43 | 26.59001 | -82.13130 | 26155 ft | 541 kts | 142° |
| 2026-05-05 08:43 | 26.56156 | -82.10416 | 25598 ft | 535 kts | 142° |
| 2026-05-05 08:43 | 26.53383 | -82.07774 | 25228 ft | 530 kts | 142° |
| 2026-05-05 08:44 | 26.50580 | -82.05058 | 25042 ft | 530 kts | 140° |
| 2026-05-05 08:44 | 26.47850 | -82.02289 | 25008 ft | 530 kts | 140° |
| 2026-05-05 08:44 | 26.45121 | -81.99512 | 25007 ft | 529 kts | 140° |
| 2026-05-05 08:44 | 26.42385 | -81.96740 | 25009 ft | 529 kts | 140° |
| 2026-05-05 08:45 | 26.39659 | -81.93988 | 25006 ft | 528 kts | 140° |
| 2026-05-05 08:45 | 26.36952 | -81.91261 | 25006 ft | 528 kts | 140° |
| 2026-05-05 08:45 | 26.34218 | -81.88511 | 24995 ft | 524 kts | 140° |
| 2026-05-05 08:45 | 26.31559 | -81.85836 | 25008 ft | 505 kts | 141° |
| 2026-05-05 08:46 | 26.28991 | -81.83254 | 25009 ft | 488 kts | 141° |
| 2026-05-05 08:46 | 26.26509 | -81.80763 | 25009 ft | 472 kts | 141° |
| 2026-05-05 08:46 | 26.24193 | -81.78290 | 25000 ft | 467 kts | 133° |
| 2026-05-05 08:46 | 26.22405 | -81.75265 | 25008 ft | 469 kts | 117° |
| 2026-05-05 08:47 | 26.20994 | -81.71989 | 24947 ft | 466 kts | 115° |
| 2026-05-05 08:47 | 26.19630 | -81.68731 | 24540 ft | 463 kts | 115° |
| 2026-05-05 08:47 | 26.18247 | -81.65473 | 24032 ft | 463 kts | 116° |
| 2026-05-05 08:47 | 26.16859 | -81.62239 | 23600 ft | 461 kts | 116° |
| 2026-05-05 08:48 | 26.15472 | -81.59030 | 23134 ft | 458 kts | 116° |
| 2026-05-05 08:48 | 26.14108 | -81.55889 | 22676 ft | 453 kts | 117° |
| 2026-05-05 08:48 | 26.12742 | -81.52749 | 22253 ft | 449 kts | 117° |
| 2026-05-05 08:48 | 26.11839 | -81.50677 | 21971 ft | 446 kts | 117° |
| 2026-05-05 08:49 | 26.10487 | -81.47579 | 21537 ft | 441 kts | 117° |
| 2026-05-05 08:49 | 26.08718 | -81.43527 | 20983 ft | 436 kts | 117° |
| 2026-05-05 08:49 | 26.07823 | -81.41481 | 20701 ft | 433 kts | 117° |
| 2026-05-05 08:49 | 26.06511 | -81.38482 | 20279 ft | 429 kts | 117° |
| 2026-05-05 08:50 | 26.05214 | -81.35503 | 19864 ft | 425 kts | 117° |
| 2026-05-05 08:50 | 26.03950 | -81.32597 | 19465 ft | 421 kts | 117° |
| 2026-05-05 08:50 | 26.02674 | -81.29667 | 19074 ft | 417 kts | 117° |
| 2026-05-05 08:50 | 26.01414 | -81.26778 | 18679 ft | 413 kts | 118° |
| 2026-05-05 08:51 | 26.00177 | -81.23944 | 18277 ft | 409 kts | 118° |
| 2026-05-05 08:51 | 25.98938 | -81.21107 | 17824 ft | 406 kts | 118° |
| 2026-05-05 08:51 | 25.97708 | -81.18294 | 17354 ft | 403 kts | 118° |
| 2026-05-05 08:51 | 25.96486 | -81.15502 | 16877 ft | 400 kts | 118° |
| 2026-05-05 08:52 | 25.95272 | -81.12727 | 16416 ft | 397 kts | 118° |
| 2026-05-05 08:52 | 25.94067 | -81.09973 | 15970 ft | 394 kts | 118° |
| 2026-05-05 08:52 | 25.92869 | -81.07238 | 15528 ft | 391 kts | 118° |
| 2026-05-05 08:52 | 25.91704 | -81.04582 | 15216 ft | 384 kts | 118° |
| 2026-05-05 08:53 | 25.90562 | -81.01929 | 15035 ft | 374 kts | 116° |
| 2026-05-05 08:53 | 25.89559 | -80.99303 | 14863 ft | 363 kts | 114° |
| 2026-05-05 08:53 | 25.88609 | -80.96744 | 14694 ft | 354 kts | 114° |
| 2026-05-05 08:53 | 25.87666 | -80.94233 | 14398 ft | 348 kts | 115° |
| 2026-05-05 08:54 | 25.86741 | -80.91793 | 14068 ft | 345 kts | 115° |
| 2026-05-05 08:54 | 25.85809 | -80.89348 | 13723 ft | 343 kts | 115° |
| 2026-05-05 08:54 | 25.84877 | -80.86917 | 13322 ft | 340 kts | 115° |
| 2026-05-05 08:54 | 25.83949 | -80.84502 | 12950 ft | 337 kts | 115° |
| 2026-05-05 08:55 | 25.83031 | -80.82122 | 12500 ft | 332 kts | 115° |
| 2026-05-05 08:55 | 25.82130 | -80.79777 | 11971 ft | 329 kts | 116° |
| 2026-05-05 08:55 | 25.81243 | -80.77469 | 11403 ft | 328 kts | 116° |
| 2026-05-05 08:55 | 25.80355 | -80.75153 | 10782 ft | 324 kts | 116° |
| 2026-05-05 08:56 | 25.79474 | -80.72866 | 10164 ft | 320 kts | 117° |
| 2026-05-05 08:56 | 25.78601 | -80.70606 | 9458 ft | 316 kts | 117° |
| 2026-05-05 08:56 | 25.77740 | -80.68382 | 8676 ft | 311 kts | 116° |
| 2026-05-05 08:56 | 25.77147 | -80.66095 | 7920 ft | 309 kts | 96° |
| 2026-05-05 08:57 | 25.77142 | -80.63727 | 7179 ft | 305 kts | 87° |
| 2026-05-05 08:57 | 25.77269 | -80.61424 | 6462 ft | 300 kts | 86° |
| 2026-05-05 08:57 | 25.77397 | -80.59124 | 5695 ft | 295 kts | 86° |
| 2026-05-05 08:57 | 25.77515 | -80.56868 | 4959 ft | 289 kts | 86° |
| 2026-05-05 08:58 | 25.77650 | -80.54668 | 4346 ft | 279 kts | 84° |
| 2026-05-05 08:58 | 25.77779 | -80.52581 | 4048 ft | 270 kts | 87° |
| 2026-05-05 08:58 | 25.77863 | -80.50566 | 3764 ft | 251 kts | 87° |
| 2026-05-05 08:58 | 25.77926 | -80.48704 | 3507 ft | 231 kts | 88° |
| 2026-05-05 08:59 | 25.77977 | -80.47020 | 3261 ft | 205 kts | 88° |
| 2026-05-05 08:59 | 25.78025 | -80.45532 | 3051 ft | 182 kts | 87° |
| 2026-05-05 08:59 | 25.78077 | -80.44165 | 2861 ft | 174 kts | 87° |
| 2026-05-05 08:59 | 25.78137 | -80.42830 | 2376 ft | 172 kts | 86° |
| 2026-05-05 09:00 | 25.78197 | -80.41523 | 1876 ft | 170 kts | 87° |
| 2026-05-05 09:00 | 25.78253 | -80.40251 | 1653 ft | 158 kts | 87° |
| 2026-05-05 09:00 | 25.78299 | -80.39085 | 1435 ft | 145 kts | 87° |
| 2026-05-05 09:00 | 25.78342 | -80.38007 | 1252 ft | 135 kts | 87° |
| 2026-05-05 09:01 | 25.78385 | -80.36983 | 1079 ft | 132 kts | 88° |
| 2026-05-05 09:01 | 25.78426 | -80.35973 | 907 ft | 133 kts | 86° |
| 2026-05-05 09:01 | 25.78469 | -80.34951 | 735 ft | 135 kts | 86° |
| 2026-05-05 09:01 | 25.78513 | -80.33896 | 547 ft | 138 kts | 86° |
| 2026-05-05 09:02 | 25.78556 | -80.32837 | 376 ft | 137 kts | 85° |
| 2026-05-05 09:02 | 25.78599 | -80.31775 | 224 ft | 136 kts | 85° |
| 2026-05-05 09:02 | 25.78646 | -80.30715 | 33 ft | 136 kts | 85° |
| 2026-05-05 09:02 | 25.78688 | -80.29783 | 27 ft | 106 kts | 88° |
| 2026-05-05 09:03 | 25.78711 | -80.29077 | 27 ft | 79 kts | 88° |
| 2026-05-05 09:03 | 25.78731 | -80.28551 | 23 ft | 58 kts | 88° |
| 2026-05-05 09:03 | 25.78747 | -80.28182 | 25 ft | 39 kts | 87° |
| 2026-05-05 09:03 | 25.78755 | -80.27992 | 28 ft | 6 kts | 87° |
| 2026-05-05 09:04 | 25.78759 | -80.27918 | 27 ft | 16 kts | 87° |
| 2026-05-05 09:04 | 25.78765 | -80.27793 | 26 ft | 17 kts | 87° |
| 2026-05-05 09:04 | 25.78773 | -80.27650 | 28 ft | 19 kts | 86° |
| 2026-05-05 09:04 | 25.78810 | -80.27567 | 30 ft | 10 kts | 26° |
| 2026-05-05 09:05 | 25.78880 | -80.27547 | 28 ft | 11 kts | 23° |
| 2026-05-05 09:05 | 25.78958 | -80.27515 | 30 ft | 13 kts | 6° |
| 2026-05-05 09:05 | 25.79001 | -80.27513 | 26 ft | 0 kts | 0° |
| 2026-05-05 09:06 | 25.79003 | -80.27514 | 26 ft | 1 kts | 347° |
| 2026-05-05 09:06 | 25.79004 | -80.27533 | 29 ft | 2 kts | 246° |
| 2026-05-05 09:07 | 25.78986 | -80.27546 | 28 ft | 11 kts | 215° |
| 2026-05-05 09:07 | 25.78925 | -80.27537 | 27 ft | 6 kts | 131° |
| 2026-05-05 09:07 | 25.78921 | -80.27523 | 26 ft | 0 kts | 104° |
| 2026-05-05 09:07 | 25.78923 | -80.27512 | 25 ft | 2 kts | 81° |
| 2026-05-05 09:08 | 25.78933 | -80.27484 | 26 ft | 6 kts | 64° |
| 2026-05-05 09:08 | 25.78967 | -80.27440 | 25 ft | 8 kts | 46° |
| 2026-05-05 09:08 | 25.78982 | -80.27423 | 23 ft | 3 kts | 47° |
| 2026-05-05 09:08 | 25.78994 | -80.27408 | 22 ft | 3 kts | 47° |
| 2026-05-05 09:09 | 25.79001 | -80.27400 | 22 ft | 0 kts | 47° |
| 2026-05-05 09:09 | 25.79001 | -80.27399 | 22 ft | 0 kts | 46° |
| 2026-05-05 09:09 | 25.79004 | -80.27396 | 22 ft | 1 kts | 46° |
| 2026-05-05 09:09 | 25.79005 | -80.27395 | 22 ft | 0 kts | 46° |
| 2026-05-05 09:10 | 25.79008 | -80.27392 | 22 ft | 0 kts | 46° |
| 2026-05-05 09:13 | 25.79010 | -80.27389 | 22 ft | 0 kts | 46° |
| 2026-05-05 09:14 | 25.79009 | -80.27390 | 22 ft | 0 kts | 46° |
| 2026-05-05 09:14 | 25.79009 | -80.27391 | 22 ft | 0 kts | 46° |